sensor_id;sensor_type;location;lat;lon;timestamp;P1;durP1;ratioP1;P2;durP2;ratioP2
28762;SDS011;15918;51.270;6.522;2022-07-12T00:01:19;2.97;;;1.58;;
28762;SDS011;15918;51.270;6.522;2022-07-12T00:03:45;5.15;;;1.88;;
28762;SDS011;15918;51.270;6.522;2022-07-12T00:06:11;3.00;;;1.50;;
28762;SDS011;15918;51.270;6.522;2022-07-12T00:08:36;2.83;;;1.70;;
28762;SDS011;15918;51.270;6.522;2022-07-12T00:11:02;3.17;;;1.60;;
28762;SDS011;15918;51.270;6.522;2022-07-12T00:13:29;3.17;;;1.80;;
28762;SDS011;15918;51.270;6.522;2022-07-12T00:15:55;2.70;;;1.58;;
28762;SDS011;15918;51.270;6.522;2022-07-12T00:18:22;3.47;;;1.80;;
28762;SDS011;15918;51.270;6.522;2022-07-12T00:20:48;1.80;;;1.70;;
28762;SDS011;15918;51.270;6.522;2022-07-12T00:23:13;3.58;;;1.67;;
28762;SDS011;15918;51.270;6.522;2022-07-12T00:25:39;4.47;;;1.75;;
28762;SDS011;15918;51.270;6.522;2022-07-12T00:28:05;3.35;;;1.80;;
28762;SDS011;15918;51.270;6.522;2022-07-12T00:30:31;2.30;;;1.70;;
28762;SDS011;15918;51.270;6.522;2022-07-12T00:32:57;1.38;;;1.27;;
28762;SDS011;15918;51.270;6.522;2022-07-12T00:35:22;2.08;;;1.70;;
28762;SDS011;15918;51.270;6.522;2022-07-12T00:37:48;1.75;;;1.65;;
28762;SDS011;15918;51.270;6.522;2022-07-12T00:40:14;1.70;;;1.60;;
28762;SDS011;15918;51.270;6.522;2022-07-12T00:42:39;2.03;;;1.50;;
28762;SDS011;15918;51.270;6.522;2022-07-12T00:45:05;2.58;;;1.50;;
28762;SDS011;15918;51.270;6.522;2022-07-12T00:47:37;1.73;;;1.63;;
28762;SDS011;15918;51.270;6.522;2022-07-12T00:50:10;3.97;;;1.90;;
28762;SDS011;15918;51.270;6.522;2022-07-12T00:52:39;2.35;;;1.75;;
28762;SDS011;15918;51.270;6.522;2022-07-12T00:55:06;1.92;;;1.83;;
28762;SDS011;15918;51.270;6.522;2022-07-12T00:57:34;1.77;;;1.67;;
28762;SDS011;15918;51.270;6.522;2022-07-12T01:00:01;2.47;;;1.70;;
28762;SDS011;15918;51.270;6.522;2022-07-12T01:02:28;3.10;;;1.80;;
28762;SDS011;15918;51.270;6.522;2022-07-12T01:04:54;2.33;;;1.23;;
28762;SDS011;15918;51.270;6.522;2022-07-12T01:07:20;5.05;;;2.05;;
28762;SDS011;15918;51.270;6.522;2022-07-12T01:09:48;2.97;;;1.63;;
28762;SDS011;15918;51.270;6.522;2022-07-12T01:12:15;2.22;;;1.70;;
28762;SDS011;15918;51.270;6.522;2022-07-12T01:14:41;2.38;;;1.63;;
28762;SDS011;15918;51.270;6.522;2022-07-12T01:17:08;3.17;;;1.77;;
28762;SDS011;15918;51.270;6.522;2022-07-12T01:19:34;2.47;;;1.90;;
28762;SDS011;15918;51.270;6.522;2022-07-12T01:22:02;2.70;;;2.00;;
28762;SDS011;15918;51.270;6.522;2022-07-12T01:24:33;1.88;;;1.73;;
28762;SDS011;15918;51.270;6.522;2022-07-12T01:26:59;1.90;;;1.70;;
28762;SDS011;15918;51.270;6.522;2022-07-12T01:29:27;1.95;;;1.80;;
28762;SDS011;15918;51.270;6.522;2022-07-12T01:31:53;3.70;;;1.75;;
28762;SDS011;15918;51.270;6.522;2022-07-12T01:34:20;1.83;;;1.73;;
28762;SDS011;15918;51.270;6.522;2022-07-12T01:36:46;2.25;;;1.48;;
28762;SDS011;15918;51.270;6.522;2022-07-12T01:39:12;1.80;;;1.70;;
28762;SDS011;15918;51.270;6.522;2022-07-12T01:41:38;2.08;;;1.98;;
28762;SDS011;15918;51.270;6.522;2022-07-12T01:44:04;2.15;;;1.60;;
28762;SDS011;15918;51.270;6.522;2022-07-12T01:46:31;2.50;;;1.63;;
28762;SDS011;15918;51.270;6.522;2022-07-12T01:48:56;1.80;;;1.70;;
28762;SDS011;15918;51.270;6.522;2022-07-12T01:51:22;1.65;;;1.55;;
28762;SDS011;15918;51.270;6.522;2022-07-12T01:53:48;3.10;;;1.77;;
28762;SDS011;15918;51.270;6.522;2022-07-12T01:56:13;3.30;;;1.50;;
28762;SDS011;15918;51.270;6.522;2022-07-12T01:58:39;1.88;;;1.77;;
28762;SDS011;15918;51.270;6.522;2022-07-12T02:01:05;1.73;;;1.63;;
28762;SDS011;15918;51.270;6.522;2022-07-12T02:03:33;2.83;;;1.73;;
28762;SDS011;15918;51.270;6.522;2022-07-12T02:06:00;1.70;;;1.60;;
28762;SDS011;15918;51.270;6.522;2022-07-12T02:08:26;4.55;;;1.48;;
28762;SDS011;15918;51.270;6.522;2022-07-12T02:10:51;1.55;;;1.45;;
28762;SDS011;15918;51.270;6.522;2022-07-12T02:13:17;4.50;;;2.10;;
28762;SDS011;15918;51.270;6.522;2022-07-12T02:15:42;1.58;;;1.48;;
28762;SDS011;15918;51.270;6.522;2022-07-12T02:18:08;1.42;;;1.30;;
28762;SDS011;15918;51.270;6.522;2022-07-12T02:20:33;2.60;;;1.67;;
28762;SDS011;15918;51.270;6.522;2022-07-12T02:22:59;1.65;;;1.55;;
28762;SDS011;15918;51.270;6.522;2022-07-12T02:25:25;2.45;;;1.70;;
28762;SDS011;15918;51.270;6.522;2022-07-12T02:27:50;2.83;;;1.42;;
28762;SDS011;15918;51.270;6.522;2022-07-12T02:30:16;3.53;;;1.52;;
28762;SDS011;15918;51.270;6.522;2022-07-12T02:32:42;1.85;;;1.67;;
28762;SDS011;15918;51.270;6.522;2022-07-12T02:35:07;4.90;;;1.90;;
28762;SDS011;15918;51.270;6.522;2022-07-12T02:37:33;1.92;;;1.50;;
28762;SDS011;15918;51.270;6.522;2022-07-12T02:39:59;1.75;;;1.65;;
28762;SDS011;15918;51.270;6.522;2022-07-12T02:42:43;2.15;;;1.58;;
28762;SDS011;15918;51.270;6.522;2022-07-12T02:45:09;2.47;;;1.70;;
28762;SDS011;15918;51.270;6.522;2022-07-12T02:47:39;2.03;;;1.63;;
28762;SDS011;15918;51.270;6.522;2022-07-12T02:50:05;1.90;;;1.80;;
28762;SDS011;15918;51.270;6.522;2022-07-12T02:52:31;2.50;;;2.00;;
28762;SDS011;15918;51.270;6.522;2022-07-12T02:54:57;2.72;;;1.50;;
28762;SDS011;15918;51.270;6.522;2022-07-12T02:57:23;1.80;;;1.70;;
28762;SDS011;15918;51.270;6.522;2022-07-12T02:59:49;1.75;;;1.60;;
28762;SDS011;15918;51.270;6.522;2022-07-12T03:02:15;2.08;;;1.80;;
28762;SDS011;15918;51.270;6.522;2022-07-12T03:04:40;1.80;;;1.60;;
28762;SDS011;15918;51.270;6.522;2022-07-12T03:07:06;1.80;;;1.60;;
28762;SDS011;15918;51.270;6.522;2022-07-12T03:09:31;1.70;;;1.35;;
28762;SDS011;15918;51.270;6.522;2022-07-12T03:11:57;2.67;;;1.45;;
28762;SDS011;15918;51.270;6.522;2022-07-12T03:14:23;2.72;;;1.48;;
28762;SDS011;15918;51.270;6.522;2022-07-12T03:16:48;2.85;;;1.63;;
28762;SDS011;15918;51.270;6.522;2022-07-12T03:19:14;3.05;;;1.83;;
28762;SDS011;15918;51.270;6.522;2022-07-12T03:21:40;1.63;;;1.30;;
28762;SDS011;15918;51.270;6.522;2022-07-12T03:24:05;2.25;;;1.40;;
28762;SDS011;15918;51.270;6.522;2022-07-12T03:26:31;3.08;;;1.30;;
28762;SDS011;15918;51.270;6.522;2022-07-12T03:28:57;2.03;;;1.20;;
28762;SDS011;15918;51.270;6.522;2022-07-12T03:31:25;1.70;;;1.35;;
28762;SDS011;15918;51.270;6.522;2022-07-12T03:33:51;1.60;;;1.50;;
28762;SDS011;15918;51.270;6.522;2022-07-12T03:36:17;1.38;;;1.30;;
28762;SDS011;15918;51.270;6.522;2022-07-12T03:38:42;1.40;;;1.30;;
28762;SDS011;15918;51.270;6.522;2022-07-12T03:41:08;2.63;;;1.42;;
28762;SDS011;15918;51.270;6.522;2022-07-12T03:43:34;2.58;;;1.45;;
28762;SDS011;15918;51.270;6.522;2022-07-12T03:45:59;1.58;;;1.48;;
28762;SDS011;15918;51.270;6.522;2022-07-12T03:48:25;2.28;;;1.42;;
28762;SDS011;15918;51.270;6.522;2022-07-12T03:50:51;2.92;;;1.52;;
28762;SDS011;15918;51.270;6.522;2022-07-12T03:53:16;1.45;;;1.38;;
28762;SDS011;15918;51.270;6.522;2022-07-12T03:55:42;2.35;;;1.65;;
28762;SDS011;15918;51.270;6.522;2022-07-12T03:58:07;3.83;;;1.75;;
28762;SDS011;15918;51.270;6.522;2022-07-12T04:00:33;1.60;;;1.50;;
28762;SDS011;15918;51.270;6.522;2022-07-12T04:02:59;4.55;;;2.17;;
28762;SDS011;15918;51.270;6.522;2022-07-12T04:05:24;2.05;;;1.63;;
28762;SDS011;15918;51.270;6.522;2022-07-12T04:07:51;2.85;;;2.03;;
28762;SDS011;15918;51.270;6.522;2022-07-12T04:10:18;6.68;;;2.10;;
28762;SDS011;15918;51.270;6.522;2022-07-12T04:12:44;2.92;;;2.08;;
28762;SDS011;15918;51.270;6.522;2022-07-12T04:15:10;2.00;;;1.77;;
28762;SDS011;15918;51.270;6.522;2022-07-12T04:17:36;1.90;;;1.60;;
28762;SDS011;15918;51.270;6.522;2022-07-12T04:20:02;2.05;;;1.90;;
28762;SDS011;15918;51.270;6.522;2022-07-12T04:22:28;2.85;;;1.90;;
28762;SDS011;15918;51.270;6.522;2022-07-12T04:24:54;2.63;;;1.58;;
28762;SDS011;15918;51.270;6.522;2022-07-12T04:27:19;1.90;;;1.67;;
28762;SDS011;15918;51.270;6.522;2022-07-12T04:29:45;2.92;;;1.70;;
28762;SDS011;15918;51.270;6.522;2022-07-12T04:32:11;2.72;;;1.80;;
28762;SDS011;15918;51.270;6.522;2022-07-12T04:34:36;3.17;;;1.45;;
28762;SDS011;15918;51.270;6.522;2022-07-12T04:37:02;3.50;;;1.50;;
28762;SDS011;15918;51.270;6.522;2022-07-12T04:39:28;1.80;;;1.70;;
28762;SDS011;15918;51.270;6.522;2022-07-12T04:41:54;1.88;;;1.75;;
28762;SDS011;15918;51.270;6.522;2022-07-12T04:44:20;3.78;;;1.80;;
28762;SDS011;15918;51.270;6.522;2022-07-12T04:46:45;2.60;;;1.85;;
28762;SDS011;15918;51.270;6.522;2022-07-12T04:49:11;6.65;;;2.80;;
28762;SDS011;15918;51.270;6.522;2022-07-12T04:51:37;2.08;;;1.88;;
28762;SDS011;15918;51.270;6.522;2022-07-12T04:54:02;4.32;;;2.50;;
28762;SDS011;15918;51.270;6.522;2022-07-12T04:56:28;6.38;;;2.90;;
28762;SDS011;15918;51.270;6.522;2022-07-12T04:58:54;4.38;;;2.20;;
28762;SDS011;15918;51.270;6.522;2022-07-12T05:01:20;5.88;;;3.10;;
28762;SDS011;15918;51.270;6.522;2022-07-12T05:03:46;3.78;;;2.72;;
28762;SDS011;15918;51.270;6.522;2022-07-12T05:06:12;2.90;;;2.47;;
28762;SDS011;15918;51.270;6.522;2022-07-12T05:08:37;4.00;;;2.40;;
28762;SDS011;15918;51.270;6.522;2022-07-12T05:11:03;6.15;;;3.10;;
28762;SDS011;15918;51.270;6.522;2022-07-12T05:13:29;3.42;;;2.63;;
28762;SDS011;15918;51.270;6.522;2022-07-12T05:15:55;4.00;;;2.90;;
28762;SDS011;15918;51.270;6.522;2022-07-12T05:18:20;3.63;;;2.72;;
28762;SDS011;15918;51.270;6.522;2022-07-12T05:20:46;3.90;;;3.10;;
28762;SDS011;15918;51.270;6.522;2022-07-12T05:23:12;4.85;;;3.10;;
28762;SDS011;15918;51.270;6.522;2022-07-12T05:25:37;3.70;;;3.03;;
28762;SDS011;15918;51.270;6.522;2022-07-12T05:28:03;5.78;;;4.18;;
28762;SDS011;15918;51.270;6.522;2022-07-12T05:30:29;6.03;;;3.20;;
28762;SDS011;15918;51.270;6.522;2022-07-12T05:32:54;9.20;;;4.22;;
28762;SDS011;15918;51.270;6.522;2022-07-12T05:35:20;13.60;;;4.95;;
28762;SDS011;15918;51.270;6.522;2022-07-12T05:37:46;10.95;;;4.25;;
28762;SDS011;15918;51.270;6.522;2022-07-12T05:40:12;15.20;;;4.10;;
28762;SDS011;15918;51.270;6.522;2022-07-12T05:42:38;9.40;;;4.22;;
28762;SDS011;15918;51.270;6.522;2022-07-12T05:45:04;9.93;;;3.97;;
28762;SDS011;15918;51.270;6.522;2022-07-12T05:47:30;8.65;;;3.92;;
28762;SDS011;15918;51.270;6.522;2022-07-12T05:49:56;11.35;;;4.03;;
28762;SDS011;15918;51.270;6.522;2022-07-12T05:52:21;5.63;;;3.42;;
28762;SDS011;15918;51.270;6.522;2022-07-12T05:55:06;13.73;;;3.90;;
28762;SDS011;15918;51.270;6.522;2022-07-12T05:57:31;10.52;;;4.32;;
28762;SDS011;15918;51.270;6.522;2022-07-12T05:59:57;11.80;;;4.47;;
28762;SDS011;15918;51.270;6.522;2022-07-12T06:02:22;13.55;;;4.07;;
28762;SDS011;15918;51.270;6.522;2022-07-12T06:04:48;8.57;;;3.70;;
28762;SDS011;15918;51.270;6.522;2022-07-12T06:07:14;10.65;;;3.97;;
28762;SDS011;15918;51.270;6.522;2022-07-12T06:09:40;8.30;;;3.55;;
28762;SDS011;15918;51.270;6.522;2022-07-12T06:12:06;8.68;;;3.70;;
28762;SDS011;15918;51.270;6.522;2022-07-12T06:14:32;9.95;;;3.63;;
28762;SDS011;15918;51.270;6.522;2022-07-12T06:16:57;7.28;;;3.60;;
28762;SDS011;15918;51.270;6.522;2022-07-12T06:19:23;7.10;;;3.50;;
28762;SDS011;15918;51.270;6.522;2022-07-12T06:21:49;9.85;;;3.75;;
28762;SDS011;15918;51.270;6.522;2022-07-12T06:24:14;14.73;;;4.93;;
28762;SDS011;15918;51.270;6.522;2022-07-12T06:26:40;8.35;;;4.07;;
28762;SDS011;15918;51.270;6.522;2022-07-12T06:29:06;13.73;;;4.25;;
28762;SDS011;15918;51.270;6.522;2022-07-12T06:31:31;7.93;;;3.50;;
28762;SDS011;15918;51.270;6.522;2022-07-12T06:33:59;11.13;;;4.85;;
28762;SDS011;15918;51.270;6.522;2022-07-12T06:36:24;10.77;;;4.50;;
28762;SDS011;15918;51.270;6.522;2022-07-12T06:38:50;7.55;;;4.50;;
28762;SDS011;15918;51.270;6.522;2022-07-12T06:41:16;11.65;;;4.32;;
28762;SDS011;15918;51.270;6.522;2022-07-12T06:43:41;7.35;;;4.20;;
28762;SDS011;15918;51.270;6.522;2022-07-12T06:46:07;9.75;;;4.40;;
28762;SDS011;15918;51.270;6.522;2022-07-12T06:48:33;10.00;;;4.63;;
28762;SDS011;15918;51.270;6.522;2022-07-12T06:50:58;11.85;;;4.97;;
28762;SDS011;15918;51.270;6.522;2022-07-12T06:53:24;8.00;;;4.00;;
28762;SDS011;15918;51.270;6.522;2022-07-12T06:55:49;16.73;;;4.72;;
28762;SDS011;15918;51.270;6.522;2022-07-12T06:58:15;11.48;;;4.82;;
28762;SDS011;15918;51.270;6.522;2022-07-12T07:00:41;8.55;;;4.68;;
28762;SDS011;15918;51.270;6.522;2022-07-12T07:03:07;7.60;;;4.63;;
28762;SDS011;15918;51.270;6.522;2022-07-12T07:05:33;8.55;;;4.82;;
28762;SDS011;15918;51.270;6.522;2022-07-12T07:08:01;10.13;;;5.25;;
28762;SDS011;15918;51.270;6.522;2022-07-12T07:10:27;11.73;;;5.00;;
28762;SDS011;15918;51.270;6.522;2022-07-12T07:12:53;10.10;;;5.25;;
28762;SDS011;15918;51.270;6.522;2022-07-12T07:15:18;8.55;;;4.85;;
28762;SDS011;15918;51.270;6.522;2022-07-12T07:17:44;8.90;;;5.00;;
28762;SDS011;15918;51.270;6.522;2022-07-12T07:20:10;9.15;;;4.90;;
28762;SDS011;15918;51.270;6.522;2022-07-12T07:22:36;10.57;;;5.45;;
28762;SDS011;15918;51.270;6.522;2022-07-12T07:25:02;8.82;;;4.45;;
28762;SDS011;15918;51.270;6.522;2022-07-12T07:27:28;7.82;;;4.72;;
28762;SDS011;15918;51.270;6.522;2022-07-12T07:29:54;7.53;;;4.55;;
28762;SDS011;15918;51.270;6.522;2022-07-12T07:32:38;8.85;;;4.10;;
28762;SDS011;15918;51.270;6.522;2022-07-12T07:35:04;9.38;;;4.65;;
28762;SDS011;15918;51.270;6.522;2022-07-12T07:37:33;10.02;;;4.90;;
28762;SDS011;15918;51.270;6.522;2022-07-12T07:39:58;7.75;;;4.82;;
28762;SDS011;15918;51.270;6.522;2022-07-12T07:42:24;6.85;;;5.18;;
28762;SDS011;15918;51.270;6.522;2022-07-12T07:44:50;9.82;;;5.93;;
28762;SDS011;15918;51.270;6.522;2022-07-12T07:47:16;11.38;;;4.40;;
28762;SDS011;15918;51.270;6.522;2022-07-12T07:49:41;9.68;;;4.75;;
28762;SDS011;15918;51.270;6.522;2022-07-12T07:52:07;8.25;;;4.50;;
28762;SDS011;15918;51.270;6.522;2022-07-12T07:54:33;4.72;;;4.22;;
28762;SDS011;15918;51.270;6.522;2022-07-12T07:56:58;7.15;;;5.85;;
28762;SDS011;15918;51.270;6.522;2022-07-12T07:59:24;10.30;;;5.47;;
28762;SDS011;15918;51.270;6.522;2022-07-12T08:01:49;6.90;;;5.70;;
28762;SDS011;15918;51.270;6.522;2022-07-12T08:04:17;7.13;;;5.65;;
28762;SDS011;15918;51.270;6.522;2022-07-12T08:06:43;7.63;;;5.70;;
28762;SDS011;15918;51.270;6.522;2022-07-12T08:09:10;7.38;;;5.28;;
28762;SDS011;15918;51.270;6.522;2022-07-12T08:11:36;9.40;;;7.05;;
28762;SDS011;15918;51.270;6.522;2022-07-12T08:14:03;9.55;;;7.45;;
28762;SDS011;15918;51.270;6.522;2022-07-12T08:16:29;11.40;;;7.53;;
28762;SDS011;15918;51.270;6.522;2022-07-12T08:18:55;8.93;;;7.65;;
28762;SDS011;15918;51.270;6.522;2022-07-12T08:21:21;11.65;;;6.22;;
28762;SDS011;15918;51.270;6.522;2022-07-12T08:23:47;10.40;;;6.22;;
28762;SDS011;15918;51.270;6.522;2022-07-12T08:26:13;6.22;;;5.63;;
28762;SDS011;15918;51.270;6.522;2022-07-12T08:28:39;6.20;;;5.60;;
28762;SDS011;15918;51.270;6.522;2022-07-12T08:31:04;6.50;;;4.97;;
28762;SDS011;15918;51.270;6.522;2022-07-12T08:33:30;7.68;;;4.57;;
28762;SDS011;15918;51.270;6.522;2022-07-12T08:35:56;7.13;;;5.25;;
28762;SDS011;15918;51.270;6.522;2022-07-12T08:38:21;6.75;;;5.78;;
28762;SDS011;15918;51.270;6.522;2022-07-12T08:40:47;7.68;;;5.95;;
28762;SDS011;15918;51.270;6.522;2022-07-12T08:43:13;6.82;;;5.82;;
28762;SDS011;15918;51.270;6.522;2022-07-12T08:45:39;7.07;;;5.82;;
28762;SDS011;15918;51.270;6.522;2022-07-12T08:48:08;5.53;;;5.07;;
28762;SDS011;15918;51.270;6.522;2022-07-12T08:50:34;8.38;;;5.63;;
28762;SDS011;15918;51.270;6.522;2022-07-12T08:53:00;7.05;;;5.57;;
28762;SDS011;15918;51.270;6.522;2022-07-12T08:55:26;10.23;;;6.65;;
28762;SDS011;15918;51.270;6.522;2022-07-12T08:58:01;6.10;;;5.60;;
28762;SDS011;15918;51.270;6.522;2022-07-12T09:00:29;7.55;;;6.00;;
28762;SDS011;15918;51.270;6.522;2022-07-12T09:02:57;7.10;;;5.78;;
28762;SDS011;15918;51.270;6.522;2022-07-12T09:05:25;6.65;;;6.03;;
28762;SDS011;15918;51.270;6.522;2022-07-12T09:08:01;7.22;;;5.78;;
28762;SDS011;15918;51.270;6.522;2022-07-12T09:10:30;7.80;;;7.00;;
28762;SDS011;15918;51.270;6.522;2022-07-12T09:12:56;7.75;;;7.00;;
28762;SDS011;15918;51.270;6.522;2022-07-12T09:15:22;7.38;;;6.53;;
28762;SDS011;15918;51.270;6.522;2022-07-12T09:20:29;7.30;;;6.57;;
28762;SDS011;15918;51.270;6.522;2022-07-12T09:22:56;7.72;;;6.88;;
28762;SDS011;15918;51.270;6.522;2022-07-12T09:25:23;8.10;;;7.32;;
28762;SDS011;15918;51.270;6.522;2022-07-12T09:27:56;7.30;;;6.70;;
28762;SDS011;15918;51.270;6.522;2022-07-12T09:30:24;7.38;;;6.65;;
28762;SDS011;15918;51.270;6.522;2022-07-12T09:32:51;6.13;;;5.53;;
28762;SDS011;15918;51.270;6.522;2022-07-12T09:35:41;6.30;;;5.70;;
28762;SDS011;15918;51.270;6.522;2022-07-12T09:38:26;10.35;;;5.85;;
28762;SDS011;15918;51.270;6.522;2022-07-12T09:40:53;5.60;;;5.10;;
28762;SDS011;15918;51.270;6.522;2022-07-12T09:43:19;6.25;;;5.72;;
28762;SDS011;15918;51.270;6.522;2022-07-12T09:45:46;5.82;;;5.30;;
28762;SDS011;15918;51.270;6.522;2022-07-12T09:48:12;6.90;;;5.35;;
28762;SDS011;15918;51.270;6.522;2022-07-12T09:50:38;6.15;;;5.18;;
28762;SDS011;15918;51.270;6.522;2022-07-12T09:53:05;5.60;;;5.00;;
28762;SDS011;15918;51.270;6.522;2022-07-12T09:55:35;5.32;;;4.93;;
28762;SDS011;15918;51.270;6.522;2022-07-12T09:58:03;6.22;;;5.18;;
28762;SDS011;15918;51.270;6.522;2022-07-12T10:00:31;6.43;;;5.00;;
28762;SDS011;15918;51.270;6.522;2022-07-12T10:02:58;5.00;;;4.50;;
28762;SDS011;15918;51.270;6.522;2022-07-12T10:05:25;5.35;;;4.85;;
28762;SDS011;15918;51.270;6.522;2022-07-12T10:07:51;6.15;;;4.50;;
28762;SDS011;15918;51.270;6.522;2022-07-12T10:10:17;5.50;;;5.00;;
28762;SDS011;15918;51.270;6.522;2022-07-12T10:12:43;6.00;;;5.03;;
28762;SDS011;15918;51.270;6.522;2022-07-12T10:15:10;6.15;;;5.55;;
28762;SDS011;15918;51.270;6.522;2022-07-12T10:17:41;6.03;;;5.53;;
28762;SDS011;15918;51.270;6.522;2022-07-12T10:20:17;6.17;;;5.33;;
28762;SDS011;15918;51.270;6.522;2022-07-12T10:22:47;7.10;;;5.65;;
28762;SDS011;15918;51.270;6.522;2022-07-12T10:27:51;6.30;;;4.97;;
28762;SDS011;15918;51.270;6.522;2022-07-12T10:30:18;5.88;;;5.10;;
28762;SDS011;15918;51.270;6.522;2022-07-12T10:32:46;6.43;;;5.40;;
28762;SDS011;15918;51.270;6.522;2022-07-12T10:40:38;7.60;;;5.63;;
28762;SDS011;15918;51.270;6.522;2022-07-12T10:45:34;6.30;;;5.68;;
28762;SDS011;15918;51.270;6.522;2022-07-12T10:48:02;6.72;;;5.43;;
28762;SDS011;15918;51.270;6.522;2022-07-12T10:58:44;8.90;;;5.28;;
28762;SDS011;15918;51.270;6.522;2022-07-12T11:01:13;10.65;;;5.63;;
28762;SDS011;15918;51.270;6.522;2022-07-12T11:03:42;9.00;;;5.70;;
28762;SDS011;15918;51.270;6.522;2022-07-12T11:06:16;5.60;;;5.10;;
28762;SDS011;15918;51.270;6.522;2022-07-12T11:11:31;5.55;;;5.05;;
28762;SDS011;15918;51.270;6.522;2022-07-12T11:13:58;5.82;;;5.22;;
28762;SDS011;15918;51.270;6.522;2022-07-12T11:16:25;5.70;;;5.05;;
28762;SDS011;15918;51.270;6.522;2022-07-12T11:18:52;5.05;;;4.43;;
28762;SDS011;15918;51.270;6.522;2022-07-12T11:21:19;5.18;;;4.68;;
28762;SDS011;15918;51.270;6.522;2022-07-12T11:23:46;5.35;;;4.40;;
28762;SDS011;15918;51.270;6.522;2022-07-12T11:26:12;4.75;;;4.25;;
28762;SDS011;15918;51.270;6.522;2022-07-12T11:28:38;4.80;;;4.40;;
28762;SDS011;15918;51.270;6.522;2022-07-12T11:33:32;6.10;;;4.38;;
28762;SDS011;15918;51.270;6.522;2022-07-12T11:36:00;5.55;;;4.97;;
28762;SDS011;15918;51.270;6.522;2022-07-12T11:38:29;5.55;;;4.45;;
28762;SDS011;15918;51.270;6.522;2022-07-12T11:40:58;4.78;;;4.13;;
28762;SDS011;15918;51.270;6.522;2022-07-12T11:43:25;6.43;;;4.07;;
28762;SDS011;15918;51.270;6.522;2022-07-12T11:45:52;5.00;;;4.30;;
28762;SDS011;15918;51.270;6.522;2022-07-12T11:48:18;4.35;;;3.97;;
28762;SDS011;15918;51.270;6.522;2022-07-12T11:50:45;5.18;;;4.68;;
28762;SDS011;15918;51.270;6.522;2022-07-12T11:53:21;4.65;;;4.15;;
28762;SDS011;15918;51.270;6.522;2022-07-12T11:55:48;5.38;;;3.97;;
28762;SDS011;15918;51.270;6.522;2022-07-12T11:58:16;5.30;;;4.28;;
28762;SDS011;15918;51.270;6.522;2022-07-12T12:00:43;5.28;;;3.42;;
28762;SDS011;15918;51.270;6.522;2022-07-12T12:03:09;3.38;;;3.00;;
28762;SDS011;15918;51.270;6.522;2022-07-12T12:05:35;4.10;;;3.70;;
28762;SDS011;15918;51.270;6.522;2022-07-12T12:08:02;4.40;;;3.97;;
28762;SDS011;15918;51.270;6.522;2022-07-12T12:10:30;5.95;;;3.88;;
28762;SDS011;15918;51.270;6.522;2022-07-12T12:12:57;3.70;;;3.40;;
28762;SDS011;15918;51.270;6.522;2022-07-12T12:15:24;4.05;;;3.60;;
28762;SDS011;15918;51.270;6.522;2022-07-12T12:17:57;4.28;;;3.80;;
28762;SDS011;15918;51.270;6.522;2022-07-12T12:20:28;3.63;;;3.33;;
28762;SDS011;15918;51.270;6.522;2022-07-12T12:22:56;3.75;;;3.45;;
28762;SDS011;15918;51.270;6.522;2022-07-12T12:25:26;3.70;;;3.40;;
28762;SDS011;15918;51.270;6.522;2022-07-12T12:27:54;5.10;;;3.80;;
28762;SDS011;15918;51.270;6.522;2022-07-12T12:30:23;4.72;;;3.63;;
28762;SDS011;15918;51.270;6.522;2022-07-12T12:35:17;4.28;;;3.60;;
28762;SDS011;15918;51.270;6.522;2022-07-12T12:37:51;6.07;;;4.10;;
28762;SDS011;15918;51.270;6.522;2022-07-12T12:40:19;3.90;;;3.45;;
28762;SDS011;15918;51.270;6.522;2022-07-12T12:42:46;3.63;;;3.33;;
28762;SDS011;15918;51.270;6.522;2022-07-12T12:45:24;4.75;;;3.60;;
28762;SDS011;15918;51.270;6.522;2022-07-12T12:47:54;4.03;;;3.53;;
28762;SDS011;15918;51.270;6.522;2022-07-12T12:50:37;3.60;;;3.30;;
28762;SDS011;15918;51.270;6.522;2022-07-12T12:53:06;3.70;;;3.40;;
28762;SDS011;15918;51.270;6.522;2022-07-12T12:55:36;5.57;;;3.50;;
28762;SDS011;15918;51.270;6.522;2022-07-12T12:58:02;4.03;;;3.72;;
28762;SDS011;15918;51.270;6.522;2022-07-12T13:00:28;4.55;;;3.42;;
28762;SDS011;15918;51.270;6.522;2022-07-12T13:02:55;3.47;;;3.15;;
28762;SDS011;15918;51.270;6.522;2022-07-12T13:05:24;3.55;;;2.90;;
28762;SDS011;15918;51.270;6.522;2022-07-12T13:07:51;4.72;;;3.00;;
28762;SDS011;15918;51.270;6.522;2022-07-12T13:10:16;3.95;;;2.95;;
28762;SDS011;15918;51.270;6.522;2022-07-12T13:12:42;3.80;;;2.83;;
28762;SDS011;15918;51.270;6.522;2022-07-12T13:15:08;3.63;;;3.30;;
28762;SDS011;15918;51.270;6.522;2022-07-12T13:17:34;4.72;;;2.78;;
28762;SDS011;15918;51.270;6.522;2022-07-12T13:19:59;4.95;;;2.92;;
28762;SDS011;15918;51.270;6.522;2022-07-12T13:22:25;3.00;;;2.80;;
28762;SDS011;15918;51.270;6.522;2022-07-12T13:24:50;2.88;;;2.60;;
28762;SDS011;15918;51.270;6.522;2022-07-12T13:27:16;3.00;;;2.33;;
28762;SDS011;15918;51.270;6.522;2022-07-12T13:29:42;3.20;;;2.95;;
28762;SDS011;15918;51.270;6.522;2022-07-12T13:32:07;3.42;;;2.67;;
28762;SDS011;15918;51.270;6.522;2022-07-12T13:34:33;4.75;;;2.60;;
28762;SDS011;15918;51.270;6.522;2022-07-12T13:36:59;3.00;;;2.47;;
28762;SDS011;15918;51.270;6.522;2022-07-12T13:39:24;2.92;;;2.63;;
28762;SDS011;15918;51.270;6.522;2022-07-12T13:42:08;2.95;;;2.67;;
28762;SDS011;15918;51.270;6.522;2022-07-12T13:44:34;5.43;;;2.75;;
28762;SDS011;15918;51.270;6.522;2022-07-12T13:46:59;4.18;;;2.40;;
28762;SDS011;15918;51.270;6.522;2022-07-12T13:49:25;3.63;;;2.22;;
28762;SDS011;15918;51.270;6.522;2022-07-12T13:51:51;3.10;;;2.17;;
28762;SDS011;15918;51.270;6.522;2022-07-12T13:54:16;5.75;;;2.58;;
28762;SDS011;15918;51.270;6.522;2022-07-12T13:56:42;4.07;;;2.25;;
28762;SDS011;15918;51.270;6.522;2022-07-12T13:59:07;3.92;;;2.33;;
28762;SDS011;15918;51.270;6.522;2022-07-12T14:01:33;2.30;;;2.10;;
28762;SDS011;15918;51.270;6.522;2022-07-12T14:03:59;3.17;;;2.47;;
28762;SDS011;15918;51.270;6.522;2022-07-12T14:06:24;2.08;;;1.98;;
28762;SDS011;15918;51.270;6.522;2022-07-12T14:08:51;5.72;;;2.90;;
28762;SDS011;15918;51.270;6.522;2022-07-12T14:11:17;3.60;;;2.50;;
28762;SDS011;15918;51.270;6.522;2022-07-12T14:13:42;2.08;;;1.98;;
28762;SDS011;15918;51.270;6.522;2022-07-12T14:16:08;3.85;;;2.42;;
28762;SDS011;15918;51.270;6.522;2022-07-12T14:18:34;4.22;;;2.60;;
28762;SDS011;15918;51.270;6.522;2022-07-12T14:20:59;5.20;;;2.10;;
28762;SDS011;15918;51.270;6.522;2022-07-12T14:23:25;4.20;;;2.65;;
28762;SDS011;15918;51.270;6.522;2022-07-12T14:25:51;3.50;;;2.17;;
28762;SDS011;15918;51.270;6.522;2022-07-12T14:28:17;5.53;;;2.50;;
28762;SDS011;15918;51.270;6.522;2022-07-12T14:30:42;6.18;;;2.50;;
28762;SDS011;15918;51.270;6.522;2022-07-12T14:33:09;4.35;;;1.85;;
28762;SDS011;15918;51.270;6.522;2022-07-12T14:35:34;3.25;;;2.33;;
28762;SDS011;15918;51.270;6.522;2022-07-12T14:38:00;3.58;;;2.10;;
28762;SDS011;15918;51.270;6.522;2022-07-12T14:40:26;4.18;;;2.25;;
28762;SDS011;15918;51.270;6.522;2022-07-12T14:42:51;3.40;;;2.33;;
28762;SDS011;15918;51.270;6.522;2022-07-12T14:45:17;3.22;;;2.28;;
28762;SDS011;15918;51.270;6.522;2022-07-12T14:47:43;2.50;;;2.10;;
28762;SDS011;15918;51.270;6.522;2022-07-12T14:50:08;3.08;;;2.00;;
28762;SDS011;15918;51.270;6.522;2022-07-12T14:52:34;7.22;;;2.08;;
28762;SDS011;15918;51.270;6.522;2022-07-12T14:54:59;2.75;;;2.38;;
28762;SDS011;15918;51.270;6.522;2022-07-12T14:57:25;4.90;;;1.60;;
28762;SDS011;15918;51.270;6.522;2022-07-12T14:59:51;3.25;;;1.88;;
28762;SDS011;15918;51.270;6.522;2022-07-12T15:02:17;2.70;;;1.90;;
28762;SDS011;15918;51.270;6.522;2022-07-12T15:04:42;4.78;;;2.45;;
28762;SDS011;15918;51.270;6.522;2022-07-12T15:07:08;2.85;;;1.75;;
28762;SDS011;15918;51.270;6.522;2022-07-12T15:09:34;3.33;;;1.80;;
28762;SDS011;15918;51.270;6.522;2022-07-12T15:11:59;5.38;;;2.10;;